AAL652 KLGA-KDFW
Flight info
| Callsign | AAL652 |
|---|---|
| Flight time | 3h 41m |
| Altitude | 30000 |
| Route | DCT PARKE J6 HVQ Q68 LITTR DCT FEWWW BRDJE5 |
| Aircraft | A321/M-SDE3FGHIRWY/LB1 |
Departure
| Time | 2026-05-06 17:08 |
|---|---|
| Airport | LaGuardia Airport (KLGA) |
Arrival
| Time | 2026-05-06 20:49 |
|---|---|
| Airport | Dallas Fort Worth International Airport (KDFW) |
| Time | Latitude | Longitude | Altitude | Speed | Heading |
|---|---|---|---|---|---|
| 2026-05-06 16:30 | 40.77633 | -73.87382 | 20 ft | 0 kts | 171° |
| 2026-05-06 16:49 | 40.77635 | -73.87383 | 19 ft | 2 kts | 171° |
| 2026-05-06 16:50 | 40.77660 | -73.87388 | 21 ft | 3 kts | 171° |
| 2026-05-06 16:50 | 40.77680 | -73.87394 | 21 ft | 4 kts | 144° |
| 2026-05-06 16:50 | 40.77691 | -73.87417 | 22 ft | 4 kts | 79° |
| 2026-05-06 16:50 | 40.77690 | -73.87421 | 24 ft | 3 kts | 74° |
| 2026-05-06 16:51 | 40.77697 | -73.87376 | 19 ft | 4 kts | 96° |
| 2026-05-06 16:51 | 40.77696 | -73.87368 | 19 ft | 0 kts | 99° |
| 2026-05-06 16:54 | 40.77695 | -73.87365 | 19 ft | 1 kts | 99° |
| 2026-05-06 16:54 | 40.77694 | -73.87353 | 19 ft | 2 kts | 99° |
| 2026-05-06 16:54 | 40.77693 | -73.87330 | 19 ft | 3 kts | 91° |
| 2026-05-06 16:55 | 40.77697 | -73.87303 | 19 ft | 2 kts | 67° |
| 2026-05-06 16:55 | 40.77701 | -73.87296 | 19 ft | 0 kts | 53° |
| 2026-05-06 16:58 | 40.77704 | -73.87290 | 19 ft | 2 kts | 53° |
| 2026-05-06 16:59 | 40.77730 | -73.87273 | 20 ft | 6 kts | 15° |
| 2026-05-06 16:59 | 40.77771 | -73.87306 | 15 ft | 8 kts | 289° |
| 2026-05-06 16:59 | 40.77774 | -73.87378 | 15 ft | 8 kts | 286° |
| 2026-05-06 16:59 | 40.77813 | -73.87406 | 14 ft | 7 kts | 340° |
| 2026-05-06 17:00 | 40.77848 | -73.87447 | 14 ft | 6 kts | 309° |
| 2026-05-06 17:00 | 40.77864 | -73.87483 | 18 ft | 3 kts | 302° |
| 2026-05-06 17:00 | 40.77867 | -73.87489 | 18 ft | 0 kts | 302° |
| 2026-05-06 17:03 | 40.77872 | -73.87498 | 17 ft | 3 kts | 302° |
| 2026-05-06 17:03 | 40.77890 | -73.87538 | 16 ft | 7 kts | 302° |
| 2026-05-06 17:03 | 40.77926 | -73.87612 | 17 ft | 10 kts | 302° |
| 2026-05-06 17:03 | 40.77964 | -73.87692 | 17 ft | 9 kts | 302° |
| 2026-05-06 17:04 | 40.77996 | -73.87759 | 18 ft | 8 kts | 302° |
| 2026-05-06 17:04 | 40.78029 | -73.87817 | 17 ft | 8 kts | 319° |
| 2026-05-06 17:04 | 40.78078 | -73.87840 | 17 ft | 6 kts | 346° |
| 2026-05-06 17:04 | 40.78110 | -73.87849 | 18 ft | 3 kts | 347° |
| 2026-05-06 17:05 | 40.78138 | -73.87857 | 19 ft | 7 kts | 347° |
| 2026-05-06 17:05 | 40.78182 | -73.87866 | 20 ft | 5 kts | 6° |
| 2026-05-06 17:05 | 40.78208 | -73.87846 | 21 ft | 5 kts | 38° |
| 2026-05-06 17:05 | 40.78211 | -73.87818 | 20 ft | 3 kts | 106° |
| 2026-05-06 17:06 | 40.78210 | -73.87809 | 20 ft | 1 kts | 107° |
| 2026-05-06 17:06 | 40.78199 | -73.87788 | 20 ft | 1 kts | 122° |
| 2026-05-06 17:07 | 40.78161 | -73.87710 | 18 ft | 37 kts | 122° |
| 2026-05-06 17:07 | 40.77887 | -73.87133 | 15 ft | 108 kts | 122° |
| 2026-05-06 17:07 | 40.77377 | -73.86070 | 38 ft | 162 kts | 125° |
| 2026-05-06 17:08 | 40.76772 | -73.84802 | 753 ft | 161 kts | 127° |
| 2026-05-06 17:08 | 40.76170 | -73.83539 | 1459 ft | 165 kts | 130° |
| 2026-05-06 17:08 | 40.75569 | -73.82205 | 2004 ft | 176 kts | 125° |
| 2026-05-06 17:08 | 40.75307 | -73.80471 | 2113 ft | 215 kts | 86° |
| 2026-05-06 17:09 | 40.76021 | -73.78664 | 2411 ft | 235 kts | 45° |
| 2026-05-06 17:09 | 40.77340 | -73.77276 | 2662 ft | 251 kts | 32° |
| 2026-05-06 17:09 | 40.78861 | -73.76030 | 2907 ft | 265 kts | 29° |
| 2026-05-06 17:09 | 40.80516 | -73.74915 | 3441 ft | 266 kts | 14° |
| 2026-05-06 17:10 | 40.82377 | -73.74185 | 3711 ft | 289 kts | 13° |
| 2026-05-06 17:10 | 40.84334 | -73.73389 | 4254 ft | 299 kts | 19° |
| 2026-05-06 17:10 | 40.86221 | -73.72188 | 4948 ft | 303 kts | 28° |
| 2026-05-06 17:10 | 40.88048 | -73.70719 | 5567 ft | 309 kts | 29° |
| 2026-05-06 17:11 | 40.90018 | -73.69720 | 6114 ft | 309 kts | 3° |
| 2026-05-06 17:11 | 40.92151 | -73.69870 | 6656 ft | 299 kts | 334° |
| 2026-05-06 17:11 | 40.93915 | -73.71130 | 7246 ft | 282 kts | 307° |
| 2026-05-06 17:11 | 40.94985 | -73.73128 | 7875 ft | 262 kts | 280° |
| 2026-05-06 17:12 | 40.95247 | -73.75414 | 8529 ft | 248 kts | 261° |
| 2026-05-06 17:12 | 40.95125 | -73.77677 | 9217 ft | 246 kts | 258° |
| 2026-05-06 17:12 | 40.94953 | -73.79930 | 9894 ft | 246 kts | 257° |
| 2026-05-06 17:12 | 40.94770 | -73.82185 | 10562 ft | 246 kts | 257° |
| 2026-05-06 17:13 | 40.94575 | -73.84445 | 11168 ft | 249 kts | 257° |
| 2026-05-06 17:13 | 40.94139 | -73.86648 | 11625 ft | 251 kts | 242° |
| 2026-05-06 17:13 | 40.93259 | -73.88746 | 11756 ft | 270 kts | 238° |
| 2026-05-06 17:13 | 40.92249 | -73.90938 | 11886 ft | 289 kts | 237° |
| 2026-05-06 17:14 | 40.91162 | -73.93266 | 12015 ft | 306 kts | 237° |
| 2026-05-06 17:14 | 40.90029 | -73.95736 | 12142 ft | 322 kts | 241° |
| 2026-05-06 17:14 | 40.89291 | -73.98584 | 12488 ft | 334 kts | 253° |
| 2026-05-06 17:14 | 40.88727 | -74.01580 | 12997 ft | 338 kts | 253° |
| 2026-05-06 17:15 | 40.88163 | -74.04621 | 13505 ft | 342 kts | 254° |
| 2026-05-06 17:15 | 40.87584 | -74.07740 | 13992 ft | 346 kts | 254° |
| 2026-05-06 17:15 | 40.87012 | -74.10797 | 14487 ft | 349 kts | 254° |
| 2026-05-06 17:15 | 40.86424 | -74.13916 | 15032 ft | 351 kts | 254° |
| 2026-05-06 17:16 | 40.85828 | -74.17055 | 15535 ft | 354 kts | 255° |
| 2026-05-06 17:16 | 40.85226 | -74.20222 | 16026 ft | 356 kts | 255° |
| 2026-05-06 17:16 | 40.84624 | -74.23404 | 16530 ft | 359 kts | 255° |
| 2026-05-06 17:16 | 40.84015 | -74.26617 | 17043 ft | 361 kts | 255° |
| 2026-05-06 17:17 | 40.83400 | -74.29844 | 17554 ft | 364 kts | 255° |
| 2026-05-06 17:17 | 40.82780 | -74.33100 | 18044 ft | 366 kts | 255° |
| 2026-05-06 17:17 | 40.82155 | -74.36369 | 18502 ft | 368 kts | 255° |
| 2026-05-06 17:17 | 40.81525 | -74.39667 | 18907 ft | 370 kts | 255° |
| 2026-05-06 17:18 | 40.80897 | -74.42963 | 19313 ft | 372 kts | 255° |
| 2026-05-06 17:18 | 40.80263 | -74.46281 | 19720 ft | 374 kts | 255° |
| 2026-05-06 17:18 | 40.79625 | -74.49612 | 20142 ft | 375 kts | 255° |
| 2026-05-06 17:18 | 40.78984 | -74.52955 | 20555 ft | 377 kts | 255° |
| 2026-05-06 17:19 | 40.78339 | -74.56322 | 20947 ft | 378 kts | 255° |
| 2026-05-06 17:19 | 40.77689 | -74.59700 | 21315 ft | 380 kts | 255° |
| 2026-05-06 17:19 | 40.77032 | -74.63097 | 21714 ft | 382 kts | 255° |
| 2026-05-06 17:19 | 40.76376 | -74.66483 | 22097 ft | 384 kts | 255° |
| 2026-05-06 17:20 | 40.75705 | -74.69935 | 22488 ft | 386 kts | 255° |
| 2026-05-06 17:20 | 40.75038 | -74.73371 | 22820 ft | 388 kts | 256° |
| 2026-05-06 17:20 | 40.74367 | -74.76823 | 23171 ft | 390 kts | 256° |
| 2026-05-06 17:20 | 40.73689 | -74.80305 | 23512 ft | 391 kts | 256° |
| 2026-05-06 17:21 | 40.73009 | -74.83793 | 23810 ft | 393 kts | 256° |
| 2026-05-06 17:21 | 40.72334 | -74.87239 | 24118 ft | 394 kts | 256° |
| 2026-05-06 17:21 | 40.71644 | -74.90758 | 24412 ft | 395 kts | 256° |
| 2026-05-06 17:21 | 40.70955 | -74.94267 | 24717 ft | 396 kts | 256° |
| 2026-05-06 17:22 | 40.70260 | -74.97790 | 25010 ft | 397 kts | 256° |
| 2026-05-06 17:22 | 40.69565 | -75.01314 | 25328 ft | 398 kts | 256° |
| 2026-05-06 17:22 | 40.68866 | -75.04861 | 25632 ft | 399 kts | 256° |
| 2026-05-06 17:22 | 40.67931 | -75.08316 | 25942 ft | 402 kts | 247° |
| 2026-05-06 17:23 | 40.66556 | -75.11536 | 26277 ft | 404 kts | 242° |
| 2026-05-06 17:23 | 40.65106 | -75.14705 | 26616 ft | 404 kts | 243° |
| 2026-05-06 17:23 | 40.63657 | -75.17868 | 27037 ft | 401 kts | 243° |
| 2026-05-06 17:23 | 40.62220 | -75.21010 | 27437 ft | 399 kts | 243° |
| 2026-05-06 17:24 | 40.60791 | -75.24138 | 27819 ft | 397 kts | 243° |
| 2026-05-06 17:24 | 40.59375 | -75.27241 | 28201 ft | 396 kts | 243° |
| 2026-05-06 17:24 | 40.57957 | -75.30348 | 28583 ft | 394 kts | 243° |
| 2026-05-06 17:24 | 40.56546 | -75.33440 | 29010 ft | 393 kts | 244° |
| 2026-05-06 17:25 | 40.55142 | -75.36507 | 29415 ft | 391 kts | 244° |
| 2026-05-06 17:25 | 40.53736 | -75.39567 | 29807 ft | 390 kts | 244° |
| 2026-05-06 17:25 | 40.52339 | -75.42607 | 29895 ft | 386 kts | 244° |
| 2026-05-06 17:26 | 40.49580 | -75.48584 | 29880 ft | 380 kts | 244° |
| 2026-05-06 17:26 | 40.46845 | -75.54514 | 29877 ft | 379 kts | 244° |
| 2026-05-06 17:27 | 40.44119 | -75.60422 | 29830 ft | 382 kts | 244° |
| 2026-05-06 17:27 | 40.41360 | -75.66411 | 29881 ft | 384 kts | 244° |
| 2026-05-06 17:28 | 40.38585 | -75.72403 | 29889 ft | 384 kts | 244° |
| 2026-05-06 17:28 | 40.35794 | -75.78398 | 29891 ft | 385 kts | 244° |
| 2026-05-06 17:29 | 40.33005 | -75.84372 | 29912 ft | 384 kts | 244° |
| 2026-05-06 17:29 | 40.30218 | -75.90341 | 29907 ft | 383 kts | 244° |
| 2026-05-06 17:30 | 40.27434 | -75.96300 | 29873 ft | 382 kts | 244° |
| 2026-05-06 17:30 | 40.24650 | -76.02245 | 29850 ft | 382 kts | 244° |
| 2026-05-06 17:31 | 40.21865 | -76.08170 | 29853 ft | 382 kts | 244° |
| 2026-05-06 17:31 | 40.19545 | -76.13114 | 29871 ft | 382 kts | 244° |
| 2026-05-06 17:32 | 40.16761 | -76.19042 | 29903 ft | 382 kts | 244° |
| 2026-05-06 17:32 | 40.13973 | -76.24931 | 29894 ft | 380 kts | 244° |
| 2026-05-06 17:33 | 40.11192 | -76.30814 | 29894 ft | 380 kts | 244° |
| 2026-05-06 17:33 | 40.08468 | -76.36720 | 29843 ft | 379 kts | 245° |
| 2026-05-06 17:34 | 40.05767 | -76.42633 | 29846 ft | 379 kts | 245° |
| 2026-05-06 17:34 | 40.03053 | -76.48528 | 29852 ft | 379 kts | 245° |
| 2026-05-06 17:35 | 40.00315 | -76.54423 | 29894 ft | 379 kts | 244° |
| 2026-05-06 17:35 | 39.97582 | -76.60291 | 29896 ft | 378 kts | 244° |
| 2026-05-06 17:36 | 39.93514 | -76.69027 | 29882 ft | 376 kts | 244° |
| 2026-05-06 17:36 | 39.90793 | -76.74866 | 29889 ft | 376 kts | 244° |
| 2026-05-06 17:37 | 39.88073 | -76.80689 | 29886 ft | 376 kts | 244° |
| 2026-05-06 17:37 | 39.85355 | -76.86508 | 29885 ft | 376 kts | 244° |
| 2026-05-06 17:38 | 39.82627 | -76.92341 | 29896 ft | 376 kts | 244° |
| 2026-05-06 17:38 | 39.79904 | -76.98142 | 29896 ft | 375 kts | 244° |
| 2026-05-06 17:39 | 39.77184 | -77.03896 | 29890 ft | 375 kts | 244° |
| 2026-05-06 17:39 | 39.74452 | -77.09682 | 29860 ft | 376 kts | 244° |
| 2026-05-06 17:40 | 39.71711 | -77.15481 | 29868 ft | 376 kts | 244° |
| 2026-05-06 17:40 | 39.68972 | -77.21277 | 29867 ft | 376 kts | 244° |
| 2026-05-06 17:41 | 39.66231 | -77.27069 | 29869 ft | 376 kts | 244° |
| 2026-05-06 17:41 | 39.63486 | -77.32857 | 29874 ft | 376 kts | 244° |
| 2026-05-06 17:42 | 39.60728 | -77.38635 | 29879 ft | 376 kts | 244° |
| 2026-05-06 17:42 | 39.57970 | -77.44409 | 29883 ft | 376 kts | 244° |
| 2026-05-06 17:43 | 39.55219 | -77.50179 | 29845 ft | 376 kts | 244° |
| 2026-05-06 17:43 | 39.52461 | -77.55953 | 29857 ft | 377 kts | 244° |
| 2026-05-06 17:44 | 39.49686 | -77.61736 | 29861 ft | 378 kts | 244° |
| 2026-05-06 17:44 | 39.46908 | -77.67510 | 29855 ft | 378 kts | 243° |
| 2026-05-06 17:45 | 39.44115 | -77.73300 | 29831 ft | 379 kts | 243° |
| 2026-05-06 17:45 | 39.41333 | -77.79083 | 29838 ft | 378 kts | 244° |
| 2026-05-06 17:46 | 39.38556 | -77.84858 | 29814 ft | 378 kts | 244° |
| 2026-05-06 17:46 | 39.36051 | -77.90755 | 29807 ft | 376 kts | 248° |
| 2026-05-06 17:47 | 39.33736 | -77.96821 | 29817 ft | 375 kts | 248° |
| 2026-05-06 17:47 | 39.31409 | -78.02863 | 29827 ft | 376 kts | 247° |
| 2026-05-06 17:48 | 39.29029 | -78.08880 | 29836 ft | 376 kts | 247° |
| 2026-05-06 17:48 | 39.26624 | -78.14880 | 29850 ft | 376 kts | 247° |
| 2026-05-06 17:49 | 39.24218 | -78.20883 | 29857 ft | 377 kts | 247° |
| 2026-05-06 17:49 | 39.21811 | -78.26891 | 29859 ft | 377 kts | 247° |
| 2026-05-06 17:50 | 39.19403 | -78.32901 | 29813 ft | 377 kts | 248° |
| 2026-05-06 17:50 | 39.16989 | -78.38926 | 29815 ft | 378 kts | 248° |
| 2026-05-06 17:51 | 39.14574 | -78.44919 | 29823 ft | 380 kts | 247° |
| 2026-05-06 17:51 | 39.12119 | -78.50994 | 29824 ft | 380 kts | 247° |
| 2026-05-06 17:52 | 39.09691 | -78.56988 | 29822 ft | 380 kts | 247° |
| 2026-05-06 17:52 | 39.07245 | -78.63016 | 29821 ft | 379 kts | 247° |
| 2026-05-06 17:53 | 39.04798 | -78.69040 | 29817 ft | 379 kts | 247° |
| 2026-05-06 17:53 | 39.02355 | -78.75050 | 29803 ft | 379 kts | 247° |
| 2026-05-06 17:54 | 38.99906 | -78.81061 | 29810 ft | 379 kts | 247° |
| 2026-05-06 17:54 | 38.97444 | -78.87077 | 29817 ft | 380 kts | 247° |
| 2026-05-06 17:55 | 38.94983 | -78.93098 | 29820 ft | 380 kts | 247° |
| 2026-05-06 17:55 | 38.92516 | -78.99127 | 29834 ft | 381 kts | 247° |
| 2026-05-06 17:56 | 38.90052 | -79.05102 | 29836 ft | 380 kts | 247° |
| 2026-05-06 17:56 | 38.87567 | -79.11124 | 29841 ft | 381 kts | 246° |
| 2026-05-06 17:57 | 38.85091 | -79.17143 | 29849 ft | 381 kts | 246° |
| 2026-05-06 17:57 | 38.83403 | -79.23197 | 29819 ft | 376 kts | 258° |
| 2026-05-06 17:58 | 38.82242 | -79.29750 | 29828 ft | 377 kts | 258° |
| 2026-05-06 17:58 | 38.81063 | -79.36307 | 29859 ft | 377 kts | 258° |
| 2026-05-06 17:59 | 38.79888 | -79.42853 | 29884 ft | 376 kts | 258° |
| 2026-05-06 17:59 | 38.78707 | -79.49379 | 29872 ft | 376 kts | 258° |
| 2026-05-06 18:00 | 38.77514 | -79.55914 | 29877 ft | 376 kts | 258° |
| 2026-05-06 18:00 | 38.76323 | -79.62446 | 29881 ft | 376 kts | 258° |
| 2026-05-06 18:01 | 38.75137 | -79.68951 | 29917 ft | 377 kts | 258° |
| 2026-05-06 18:01 | 38.73928 | -79.75527 | 29923 ft | 376 kts | 258° |
| 2026-05-06 18:02 | 38.72737 | -79.82007 | 29944 ft | 375 kts | 258° |
| 2026-05-06 18:02 | 38.71539 | -79.88489 | 29935 ft | 374 kts | 258° |
| 2026-05-06 18:03 | 38.70334 | -79.94976 | 29920 ft | 373 kts | 258° |
| 2026-05-06 18:03 | 38.69132 | -80.01447 | 29882 ft | 373 kts | 258° |
| 2026-05-06 18:04 | 38.68130 | -80.06825 | 29887 ft | 373 kts | 258° |
| 2026-05-06 18:04 | 38.66917 | -80.13286 | 29884 ft | 373 kts | 258° |
| 2026-05-06 18:05 | 38.65512 | -80.20806 | 29906 ft | 374 kts | 258° |
| 2026-05-06 18:05 | 38.64494 | -80.26235 | 29905 ft | 374 kts | 258° |
| 2026-05-06 18:06 | 38.63271 | -80.32699 | 29908 ft | 374 kts | 258° |
| 2026-05-06 18:06 | 38.62041 | -80.39170 | 29911 ft | 374 kts | 258° |
| 2026-05-06 18:07 | 38.60809 | -80.45610 | 29911 ft | 375 kts | 258° |
| 2026-05-06 18:07 | 38.59573 | -80.52077 | 29910 ft | 374 kts | 258° |
| 2026-05-06 18:08 | 38.58333 | -80.58561 | 29920 ft | 375 kts | 258° |
| 2026-05-06 18:08 | 38.57096 | -80.65036 | 29932 ft | 375 kts | 258° |
| 2026-05-06 18:09 | 38.55852 | -80.71528 | 29932 ft | 375 kts | 258° |
| 2026-05-06 18:09 | 38.54602 | -80.78016 | 29940 ft | 375 kts | 258° |
| 2026-05-06 18:10 | 38.53352 | -80.84443 | 29917 ft | 375 kts | 258° |
| 2026-05-06 18:10 | 38.52088 | -80.90925 | 29910 ft | 376 kts | 257° |
| 2026-05-06 18:11 | 38.50824 | -80.97415 | 29937 ft | 376 kts | 257° |
| 2026-05-06 18:11 | 38.49553 | -81.03902 | 29941 ft | 376 kts | 257° |
| 2026-05-06 18:12 | 38.48283 | -81.10370 | 29943 ft | 375 kts | 257° |
| 2026-05-06 18:12 | 38.47009 | -81.16840 | 29944 ft | 375 kts | 257° |
| 2026-05-06 18:13 | 38.45727 | -81.23307 | 29948 ft | 375 kts | 257° |
| 2026-05-06 18:13 | 38.44453 | -81.29733 | 29972 ft | 375 kts | 257° |
| 2026-05-06 18:14 | 38.43169 | -81.36184 | 29960 ft | 374 kts | 257° |
| 2026-05-06 18:14 | 38.41889 | -81.42618 | 29958 ft | 373 kts | 257° |
| 2026-05-06 18:15 | 38.40608 | -81.49039 | 29955 ft | 373 kts | 257° |
| 2026-05-06 18:15 | 38.39321 | -81.55463 | 29954 ft | 373 kts | 257° |
| 2026-05-06 18:16 | 38.38033 | -81.61875 | 29961 ft | 373 kts | 257° |
| 2026-05-06 18:16 | 38.36741 | -81.68283 | 29986 ft | 373 kts | 257° |
| 2026-05-06 18:17 | 38.35441 | -81.74670 | 29919 ft | 372 kts | 257° |
| 2026-05-06 18:17 | 38.33856 | -81.80963 | 29926 ft | 373 kts | 253° |
| 2026-05-06 18:18 | 38.32118 | -81.87174 | 29936 ft | 374 kts | 253° |
| 2026-05-06 18:18 | 38.30368 | -81.93425 | 29941 ft | 374 kts | 253° |
| 2026-05-06 18:19 | 38.28623 | -81.99672 | 29946 ft | 374 kts | 253° |
| 2026-05-06 18:19 | 38.26873 | -82.05906 | 29951 ft | 374 kts | 253° |
| 2026-05-06 18:20 | 38.25112 | -82.12137 | 29947 ft | 374 kts | 253° |
| 2026-05-06 18:20 | 38.23346 | -82.18366 | 29951 ft | 374 kts | 253° |
| 2026-05-06 18:21 | 38.21588 | -82.24595 | 29951 ft | 374 kts | 253° |
| 2026-05-06 18:21 | 38.19820 | -82.30829 | 29952 ft | 374 kts | 253° |
| 2026-05-06 18:22 | 38.18062 | -82.37010 | 29956 ft | 374 kts | 252° |
| 2026-05-06 18:22 | 38.16283 | -82.43225 | 29979 ft | 374 kts | 253° |
| 2026-05-06 18:23 | 38.14501 | -82.49436 | 29970 ft | 373 kts | 253° |
| 2026-05-06 18:23 | 38.12725 | -82.55634 | 29981 ft | 373 kts | 253° |
| 2026-05-06 18:24 | 38.10951 | -82.61816 | 29980 ft | 372 kts | 253° |
| 2026-05-06 18:24 | 38.09169 | -82.68007 | 29974 ft | 372 kts | 253° |
| 2026-05-06 18:25 | 38.07389 | -82.74167 | 29966 ft | 372 kts | 253° |
| 2026-05-06 18:25 | 38.05598 | -82.80332 | 29986 ft | 372 kts | 252° |
| 2026-05-06 18:26 | 38.03812 | -82.86490 | 29986 ft | 371 kts | 252° |
| 2026-05-06 18:26 | 38.02043 | -82.92590 | 29980 ft | 371 kts | 252° |
| 2026-05-06 18:27 | 38.00257 | -82.98727 | 29973 ft | 370 kts | 252° |
| 2026-05-06 18:27 | 37.98466 | -83.04856 | 29916 ft | 370 kts | 252° |
| 2026-05-06 18:28 | 37.96676 | -83.10970 | 29927 ft | 370 kts | 252° |
| 2026-05-06 18:28 | 37.94881 | -83.17094 | 29981 ft | 370 kts | 252° |
| 2026-05-06 18:29 | 37.93088 | -83.23195 | 29985 ft | 369 kts | 252° |
| 2026-05-06 18:29 | 37.91287 | -83.29287 | 29987 ft | 368 kts | 252° |
| 2026-05-06 18:30 | 37.89486 | -83.35354 | 29995 ft | 368 kts | 252° |
| 2026-05-06 18:30 | 37.87702 | -83.41377 | 29992 ft | 367 kts | 252° |
| 2026-05-06 18:31 | 37.85909 | -83.47430 | 29985 ft | 367 kts | 252° |
| 2026-05-06 18:31 | 37.84112 | -83.53484 | 29998 ft | 367 kts | 251° |
| 2026-05-06 18:32 | 37.82310 | -83.59530 | 29993 ft | 367 kts | 251° |
| 2026-05-06 18:32 | 37.80506 | -83.65578 | 29992 ft | 366 kts | 252° |
| 2026-05-06 18:33 | 37.78705 | -83.71609 | 29986 ft | 366 kts | 252° |
| 2026-05-06 18:33 | 37.76912 | -83.77591 | 29953 ft | 365 kts | 251° |
| 2026-05-06 18:34 | 37.75107 | -83.83593 | 29962 ft | 365 kts | 251° |
| 2026-05-06 18:34 | 37.73305 | -83.89581 | 29965 ft | 364 kts | 251° |
| 2026-05-06 18:35 | 37.71499 | -83.95562 | 29987 ft | 364 kts | 250° |
| 2026-05-06 18:35 | 37.69690 | -84.01525 | 30001 ft | 364 kts | 250° |
| 2026-05-06 18:36 | 37.67883 | -84.07488 | 30002 ft | 364 kts | 250° |
| 2026-05-06 18:36 | 37.66071 | -84.13452 | 30012 ft | 364 kts | 250° |
| 2026-05-06 18:37 | 37.64564 | -84.18414 | 30013 ft | 364 kts | 250° |
| 2026-05-06 18:37 | 37.62740 | -84.24381 | 30022 ft | 364 kts | 250° |
| 2026-05-06 18:38 | 37.60910 | -84.30336 | 30046 ft | 364 kts | 250° |
| 2026-05-06 18:38 | 37.59083 | -84.36281 | 30040 ft | 363 kts | 250° |
| 2026-05-06 18:39 | 37.57258 | -84.42212 | 29961 ft | 363 kts | 250° |
| 2026-05-06 18:40 | 37.54509 | -84.51109 | 29984 ft | 363 kts | 250° |
| 2026-05-06 18:40 | 37.52663 | -84.57049 | 29994 ft | 363 kts | 250° |
| 2026-05-06 18:41 | 37.50824 | -84.62988 | 29997 ft | 364 kts | 250° |
| 2026-05-06 18:41 | 37.48996 | -84.68888 | 30016 ft | 364 kts | 250° |
| 2026-05-06 18:42 | 37.47150 | -84.74825 | 30014 ft | 364 kts | 250° |
| 2026-05-06 18:42 | 37.45308 | -84.80767 | 30013 ft | 364 kts | 250° |
| 2026-05-06 18:43 | 37.43465 | -84.86701 | 30012 ft | 364 kts | 250° |
| 2026-05-06 18:43 | 37.41623 | -84.92634 | 30007 ft | 364 kts | 250° |
| 2026-05-06 18:44 | 37.39772 | -84.98576 | 30011 ft | 364 kts | 250° |
| 2026-05-06 18:44 | 37.37912 | -85.04521 | 30036 ft | 364 kts | 250° |
| 2026-05-06 18:45 | 37.36069 | -85.10393 | 30000 ft | 362 kts | 250° |
| 2026-05-06 18:45 | 37.34211 | -85.16289 | 30020 ft | 363 kts | 250° |
| 2026-05-06 18:46 | 37.32346 | -85.22195 | 30037 ft | 364 kts | 250° |
| 2026-05-06 18:46 | 37.30474 | -85.28107 | 30055 ft | 364 kts | 249° |
| 2026-05-06 18:47 | 37.28594 | -85.34022 | 29994 ft | 364 kts | 249° |
| 2026-05-06 18:47 | 37.26710 | -85.39941 | 29998 ft | 365 kts | 249° |
| 2026-05-06 18:48 | 37.24828 | -85.45856 | 30017 ft | 364 kts | 249° |
| 2026-05-06 18:48 | 37.22950 | -85.51755 | 30015 ft | 363 kts | 249° |
| 2026-05-06 18:49 | 37.21065 | -85.57644 | 30015 ft | 363 kts | 249° |
| 2026-05-06 18:49 | 37.19184 | -85.63509 | 30019 ft | 362 kts | 249° |
| 2026-05-06 18:50 | 37.17298 | -85.69379 | 30021 ft | 362 kts | 249° |
| 2026-05-06 18:50 | 37.15415 | -85.75233 | 29972 ft | 362 kts | 249° |
| 2026-05-06 18:51 | 37.13528 | -85.81089 | 29995 ft | 362 kts | 249° |
| 2026-05-06 18:51 | 37.11633 | -85.86951 | 30006 ft | 363 kts | 249° |
| 2026-05-06 18:52 | 37.09740 | -85.92812 | 30012 ft | 363 kts | 249° |
| 2026-05-06 18:52 | 37.07842 | -85.98683 | 30015 ft | 363 kts | 249° |
| 2026-05-06 18:53 | 37.05931 | -86.04556 | 30018 ft | 363 kts | 249° |
| 2026-05-06 18:53 | 37.04018 | -86.10413 | 30018 ft | 363 kts | 249° |
| 2026-05-06 18:54 | 37.02097 | -86.16283 | 30011 ft | 363 kts | 249° |
| 2026-05-06 18:54 | 37.00179 | -86.22138 | 30034 ft | 363 kts | 249° |
| 2026-05-06 18:55 | 36.98269 | -86.27986 | 30049 ft | 362 kts | 249° |
| 2026-05-06 18:55 | 36.96359 | -86.33811 | 30050 ft | 362 kts | 249° |
| 2026-05-06 18:56 | 36.94440 | -86.39632 | 30047 ft | 362 kts | 249° |
| 2026-05-06 18:56 | 36.92527 | -86.45413 | 29994 ft | 362 kts | 249° |
| 2026-05-06 18:57 | 36.90489 | -86.51178 | 30002 ft | 363 kts | 248° |
| 2026-05-06 18:57 | 36.88393 | -86.56920 | 30054 ft | 363 kts | 247° |
| 2026-05-06 18:58 | 36.86304 | -86.62666 | 30048 ft | 363 kts | 248° |
| 2026-05-06 18:58 | 36.84237 | -86.68404 | 30042 ft | 362 kts | 248° |
| 2026-05-06 18:59 | 36.82169 | -86.74145 | 30034 ft | 362 kts | 248° |
| 2026-05-06 18:59 | 36.80103 | -86.79872 | 30034 ft | 361 kts | 247° |
| 2026-05-06 19:00 | 36.78023 | -86.85583 | 30030 ft | 361 kts | 247° |
| 2026-05-06 19:00 | 36.75949 | -86.91296 | 30031 ft | 361 kts | 247° |
| 2026-05-06 19:01 | 36.73889 | -86.96970 | 30024 ft | 361 kts | 247° |
| 2026-05-06 19:01 | 36.71812 | -87.02671 | 30015 ft | 361 kts | 247° |
| 2026-05-06 19:02 | 36.69729 | -87.08387 | 29996 ft | 363 kts | 247° |
| 2026-05-06 19:02 | 36.67637 | -87.14109 | 30009 ft | 363 kts | 247° |
| 2026-05-06 19:03 | 36.65529 | -87.19838 | 30016 ft | 363 kts | 247° |
| 2026-05-06 19:03 | 36.63426 | -87.25564 | 30020 ft | 363 kts | 247° |
| 2026-05-06 19:04 | 36.61320 | -87.31289 | 30023 ft | 363 kts | 247° |
| 2026-05-06 19:04 | 36.59208 | -87.37013 | 30029 ft | 363 kts | 247° |
| 2026-05-06 19:05 | 36.57114 | -87.42689 | 30047 ft | 363 kts | 247° |
| 2026-05-06 19:05 | 36.55006 | -87.48407 | 30041 ft | 363 kts | 247° |
| 2026-05-06 19:06 | 36.52894 | -87.54118 | 30035 ft | 363 kts | 247° |
| 2026-05-06 19:06 | 36.50779 | -87.59828 | 30044 ft | 363 kts | 247° |
| 2026-05-06 19:07 | 36.48653 | -87.65546 | 30050 ft | 364 kts | 247° |
| 2026-05-06 19:07 | 36.46521 | -87.71260 | 30057 ft | 367 kts | 246° |
| 2026-05-06 19:08 | 36.44369 | -87.77021 | 30060 ft | 368 kts | 246° |
| 2026-05-06 19:08 | 36.42214 | -87.82785 | 30059 ft | 368 kts | 246° |
| 2026-05-06 19:09 | 36.40404 | -87.87612 | 30056 ft | 367 kts | 246° |
| 2026-05-06 19:09 | 36.38257 | -87.93329 | 30057 ft | 367 kts | 246° |
| 2026-05-06 19:10 | 36.36102 | -87.99076 | 30056 ft | 367 kts | 246° |
| 2026-05-06 19:10 | 36.33933 | -88.04824 | 30056 ft | 367 kts | 246° |
| 2026-05-06 19:11 | 36.31759 | -88.10576 | 30068 ft | 367 kts | 246° |
| 2026-05-06 19:11 | 36.29591 | -88.16322 | 30056 ft | 367 kts | 246° |
| 2026-05-06 19:12 | 36.27423 | -88.22062 | 30045 ft | 367 kts | 246° |
| 2026-05-06 19:12 | 36.25253 | -88.27793 | 30040 ft | 367 kts | 246° |
| 2026-05-06 19:13 | 36.23074 | -88.33531 | 29988 ft | 368 kts | 246° |
| 2026-05-06 19:13 | 36.20885 | -88.39277 | 30003 ft | 369 kts | 246° |
| 2026-05-06 19:14 | 36.18689 | -88.45027 | 30004 ft | 369 kts | 246° |
| 2026-05-06 19:14 | 36.16491 | -88.50784 | 30037 ft | 371 kts | 246° |
| 2026-05-06 19:15 | 36.14284 | -88.56568 | 30037 ft | 371 kts | 246° |
| 2026-05-06 19:15 | 36.12070 | -88.62340 | 30038 ft | 371 kts | 245° |
| 2026-05-06 19:16 | 36.09869 | -88.68057 | 30043 ft | 370 kts | 246° |
| 2026-05-06 19:16 | 36.07644 | -88.73853 | 30041 ft | 371 kts | 246° |
| 2026-05-06 19:17 | 36.05443 | -88.79574 | 30039 ft | 371 kts | 245° |
| 2026-05-06 19:17 | 36.03217 | -88.85333 | 30046 ft | 371 kts | 245° |
| 2026-05-06 19:18 | 36.00977 | -88.91116 | 30058 ft | 372 kts | 245° |
| 2026-05-06 19:18 | 35.98744 | -88.96888 | 30051 ft | 372 kts | 245° |
| 2026-05-06 19:19 | 35.96505 | -89.02646 | 30048 ft | 372 kts | 245° |
| 2026-05-06 19:19 | 35.94258 | -89.08415 | 30054 ft | 373 kts | 245° |
| 2026-05-06 19:20 | 35.92005 | -89.14182 | 30057 ft | 373 kts | 245° |
| 2026-05-06 19:20 | 35.89753 | -89.19952 | 30060 ft | 373 kts | 245° |
| 2026-05-06 19:21 | 35.87511 | -89.25684 | 30087 ft | 373 kts | 245° |
| 2026-05-06 19:21 | 35.85261 | -89.31431 | 30083 ft | 371 kts | 245° |
| 2026-05-06 19:22 | 35.83014 | -89.37159 | 30077 ft | 371 kts | 245° |
| 2026-05-06 19:22 | 35.80761 | -89.42881 | 30077 ft | 370 kts | 245° |
| 2026-05-06 19:23 | 35.78512 | -89.48580 | 30069 ft | 370 kts | 245° |
| 2026-05-06 19:23 | 35.76266 | -89.54283 | 30063 ft | 369 kts | 245° |
| 2026-05-06 19:24 | 35.74008 | -89.59982 | 30027 ft | 374 kts | 245° |
| 2026-05-06 19:24 | 35.72122 | -89.65959 | 30029 ft | 378 kts | 258° |
| 2026-05-06 19:25 | 35.71742 | -89.72462 | 30038 ft | 382 kts | 264° |
| 2026-05-06 19:25 | 35.71449 | -89.78984 | 30046 ft | 381 kts | 261° |
| 2026-05-06 19:26 | 35.70786 | -89.85440 | 30040 ft | 380 kts | 258° |
| 2026-05-06 19:26 | 35.69943 | -89.91860 | 30042 ft | 380 kts | 258° |
| 2026-05-06 19:27 | 35.69095 | -89.98281 | 30052 ft | 380 kts | 258° |
| 2026-05-06 19:27 | 35.68282 | -90.04711 | 30057 ft | 380 kts | 259° |
| 2026-05-06 19:28 | 35.67630 | -90.11164 | 30041 ft | 384 kts | 268° |
| 2026-05-06 19:28 | 35.68776 | -90.17686 | 30041 ft | 392 kts | 278° |
| 2026-05-06 19:29 | 35.70178 | -90.24174 | 30046 ft | 392 kts | 278° |
| 2026-05-06 19:29 | 35.71589 | -90.30667 | 30055 ft | 392 kts | 278° |
| 2026-05-06 19:30 | 35.73005 | -90.37158 | 30063 ft | 393 kts | 278° |
| 2026-05-06 19:30 | 35.74448 | -90.43643 | 30107 ft | 392 kts | 278° |
| 2026-05-06 19:31 | 35.75909 | -90.50050 | 30102 ft | 387 kts | 278° |
| 2026-05-06 19:31 | 35.78175 | -90.59478 | 30109 ft | 381 kts | 278° |
| 2026-05-06 19:32 | 35.79691 | -90.65740 | 30111 ft | 381 kts | 278° |
| 2026-05-06 19:32 | 35.81209 | -90.71989 | 30110 ft | 381 kts | 278° |
| 2026-05-06 19:33 | 35.82736 | -90.78238 | 30129 ft | 381 kts | 278° |
| 2026-05-06 19:33 | 35.84304 | -90.84494 | 30114 ft | 382 kts | 278° |
| 2026-05-06 19:34 | 35.85878 | -90.90748 | 30099 ft | 381 kts | 278° |
| 2026-05-06 19:34 | 35.87456 | -90.97000 | 30091 ft | 381 kts | 278° |
| 2026-05-06 19:35 | 35.89038 | -91.03247 | 30087 ft | 382 kts | 278° |
| 2026-05-06 19:35 | 35.90629 | -91.09504 | 30090 ft | 382 kts | 278° |
| 2026-05-06 19:36 | 35.92225 | -91.15760 | 30088 ft | 382 kts | 278° |
| 2026-05-06 19:36 | 35.93846 | -91.22015 | 30088 ft | 383 kts | 278° |
| 2026-05-06 19:37 | 35.95475 | -91.28267 | 30085 ft | 383 kts | 279° |
| 2026-05-06 19:37 | 35.96835 | -91.33469 | 30085 ft | 383 kts | 279° |
| 2026-05-06 19:38 | 35.98719 | -91.40787 | 30092 ft | 379 kts | 275° |
| 2026-05-06 19:38 | 35.98952 | -91.43920 | 30091 ft | 366 kts | 261° |
| 2026-05-06 19:38 | 35.98444 | -91.46950 | 30090 ft | 360 kts | 250° |
| 2026-05-06 19:39 | 35.96774 | -91.52788 | 30108 ft | 361 kts | 249° |
| 2026-05-06 19:39 | 35.95100 | -91.58631 | 30118 ft | 360 kts | 249° |
| 2026-05-06 19:40 | 35.93429 | -91.64462 | 30125 ft | 360 kts | 249° |
| 2026-05-06 19:40 | 35.92032 | -91.69304 | 30131 ft | 360 kts | 249° |
| 2026-05-06 19:41 | 35.90352 | -91.75119 | 30132 ft | 359 kts | 249° |
| 2026-05-06 19:41 | 35.88679 | -91.80918 | 30130 ft | 359 kts | 249° |
| 2026-05-06 19:42 | 35.87003 | -91.86724 | 30127 ft | 359 kts | 249° |
| 2026-05-06 19:42 | 35.85328 | -91.92517 | 30156 ft | 359 kts | 250° |
| 2026-05-06 19:43 | 35.83644 | -91.98300 | 30148 ft | 358 kts | 249° |
| 2026-05-06 19:43 | 35.81959 | -92.04076 | 30133 ft | 357 kts | 249° |
| 2026-05-06 19:44 | 35.80277 | -92.09838 | 30131 ft | 356 kts | 250° |
| 2026-05-06 19:44 | 35.78606 | -92.15571 | 30131 ft | 356 kts | 249° |
| 2026-05-06 19:45 | 35.76918 | -92.21323 | 30117 ft | 356 kts | 249° |
| 2026-05-06 19:45 | 35.75231 | -92.27053 | 30110 ft | 356 kts | 249° |
| 2026-05-06 19:46 | 35.73541 | -92.32778 | 30125 ft | 355 kts | 250° |
| 2026-05-06 19:46 | 35.71852 | -92.38495 | 30068 ft | 356 kts | 250° |
| 2026-05-06 19:47 | 35.70160 | -92.44234 | 30066 ft | 357 kts | 249° |
| 2026-05-06 19:47 | 35.68453 | -92.49999 | 30080 ft | 358 kts | 249° |
| 2026-05-06 19:48 | 35.66750 | -92.55730 | 30083 ft | 358 kts | 249° |
| 2026-05-06 19:48 | 35.65044 | -92.61491 | 30082 ft | 358 kts | 249° |
| 2026-05-06 19:49 | 35.63329 | -92.67265 | 30096 ft | 358 kts | 249° |
| 2026-05-06 19:49 | 35.61607 | -92.73016 | 30100 ft | 358 kts | 249° |
| 2026-05-06 19:50 | 35.59891 | -92.78760 | 30092 ft | 357 kts | 249° |
| 2026-05-06 19:50 | 35.58180 | -92.84491 | 30088 ft | 357 kts | 249° |
| 2026-05-06 19:51 | 35.56460 | -92.90227 | 30082 ft | 357 kts | 249° |
| 2026-05-06 19:51 | 35.54743 | -92.95913 | 30080 ft | 357 kts | 249° |
| 2026-05-06 19:52 | 35.53015 | -93.01653 | 30081 ft | 357 kts | 249° |
| 2026-05-06 19:52 | 35.51293 | -93.07383 | 30103 ft | 356 kts | 249° |
| 2026-05-06 19:53 | 35.49572 | -93.13078 | 30107 ft | 355 kts | 249° |
| 2026-05-06 19:53 | 35.47850 | -93.18747 | 30107 ft | 354 kts | 249° |
| 2026-05-06 19:54 | 35.46132 | -93.24396 | 30102 ft | 353 kts | 249° |
| 2026-05-06 19:54 | 35.44409 | -93.30039 | 30042 ft | 353 kts | 248° |
| 2026-05-06 19:55 | 35.42675 | -93.35705 | 30042 ft | 355 kts | 248° |
| 2026-05-06 19:55 | 35.40945 | -93.41387 | 30044 ft | 356 kts | 248° |
| 2026-05-06 19:56 | 35.39206 | -93.47080 | 30043 ft | 357 kts | 248° |
| 2026-05-06 19:56 | 35.37458 | -93.52785 | 30049 ft | 357 kts | 248° |
| 2026-05-06 19:57 | 35.35720 | -93.58450 | 30055 ft | 357 kts | 248° |
| 2026-05-06 19:57 | 35.33970 | -93.64154 | 30059 ft | 358 kts | 248° |
| 2026-05-06 19:58 | 35.32215 | -93.69860 | 30060 ft | 358 kts | 248° |
| 2026-05-06 19:58 | 35.30452 | -93.75558 | 30059 ft | 357 kts | 248° |
| 2026-05-06 19:59 | 35.28683 | -93.81255 | 30093 ft | 358 kts | 248° |
| 2026-05-06 19:59 | 35.26919 | -93.86937 | 30093 ft | 356 kts | 248° |
| 2026-05-06 20:00 | 35.25152 | -93.92604 | 30092 ft | 355 kts | 248° |
| 2026-05-06 20:00 | 35.23397 | -93.98250 | 30097 ft | 355 kts | 248° |
| 2026-05-06 20:01 | 35.21640 | -94.03886 | 30092 ft | 354 kts | 248° |
| 2026-05-06 20:01 | 35.19876 | -94.09518 | 30089 ft | 354 kts | 248° |
| 2026-05-06 20:02 | 35.18115 | -94.15144 | 30091 ft | 354 kts | 248° |
| 2026-05-06 20:02 | 35.16350 | -94.20775 | 30057 ft | 355 kts | 247° |
| 2026-05-06 20:03 | 35.14569 | -94.26425 | 30061 ft | 356 kts | 247° |
| 2026-05-06 20:03 | 35.12790 | -94.32045 | 30066 ft | 357 kts | 247° |
| 2026-05-06 20:04 | 35.11000 | -94.37710 | 30074 ft | 357 kts | 247° |
| 2026-05-06 20:04 | 35.09217 | -94.43378 | 30075 ft | 357 kts | 247° |
| 2026-05-06 20:05 | 35.07424 | -94.49050 | 30074 ft | 358 kts | 247° |
| 2026-05-06 20:05 | 35.05623 | -94.54713 | 30077 ft | 358 kts | 247° |
| 2026-05-06 20:06 | 35.03816 | -94.60385 | 30088 ft | 358 kts | 247° |
| 2026-05-06 20:06 | 35.01938 | -94.66005 | 30087 ft | 357 kts | 242° |
| 2026-05-06 20:07 | 34.98762 | -94.70661 | 30094 ft | 362 kts | 226° |
| 2026-05-06 20:07 | 34.94957 | -94.74690 | 30085 ft | 362 kts | 226° |
| 2026-05-06 20:08 | 34.91152 | -94.78727 | 30084 ft | 362 kts | 226° |
| 2026-05-06 20:08 | 34.87355 | -94.82771 | 30044 ft | 363 kts | 226° |
| 2026-05-06 20:09 | 34.83534 | -94.86822 | 30042 ft | 364 kts | 226° |
| 2026-05-06 20:09 | 34.79685 | -94.90847 | 30048 ft | 365 kts | 225° |
| 2026-05-06 20:10 | 34.75775 | -94.94830 | 30061 ft | 366 kts | 225° |
| 2026-05-06 20:10 | 34.71867 | -94.98796 | 30064 ft | 365 kts | 225° |
| 2026-05-06 20:11 | 34.67991 | -95.02737 | 30069 ft | 365 kts | 225° |
| 2026-05-06 20:11 | 34.64094 | -95.06699 | 30066 ft | 364 kts | 225° |
| 2026-05-06 20:12 | 34.60862 | -95.09990 | 30008 ft | 365 kts | 225° |
| 2026-05-06 20:12 | 34.56968 | -95.13961 | 30018 ft | 366 kts | 225° |
| 2026-05-06 20:13 | 34.53066 | -95.17929 | 30039 ft | 366 kts | 225° |
| 2026-05-06 20:13 | 34.49151 | -95.21899 | 30033 ft | 366 kts | 225° |
| 2026-05-06 20:14 | 34.45237 | -95.25860 | 30038 ft | 366 kts | 225° |
| 2026-05-06 20:14 | 34.41314 | -95.29814 | 30037 ft | 366 kts | 225° |
| 2026-05-06 20:15 | 34.37393 | -95.33759 | 30039 ft | 366 kts | 224° |
| 2026-05-06 20:15 | 34.33480 | -95.37683 | 29998 ft | 368 kts | 225° |
| 2026-05-06 20:16 | 34.29536 | -95.41640 | 30001 ft | 368 kts | 225° |
| 2026-05-06 20:16 | 34.25586 | -95.45598 | 30012 ft | 369 kts | 224° |
| 2026-05-06 20:17 | 34.21630 | -95.49558 | 30020 ft | 369 kts | 224° |
| 2026-05-06 20:17 | 34.17674 | -95.53527 | 30023 ft | 369 kts | 224° |
| 2026-05-06 20:18 | 34.13710 | -95.57479 | 30030 ft | 369 kts | 224° |
| 2026-05-06 20:18 | 34.09743 | -95.61423 | 30034 ft | 369 kts | 224° |
| 2026-05-06 20:19 | 34.05800 | -95.65364 | 29989 ft | 371 kts | 225° |
| 2026-05-06 20:19 | 34.01806 | -95.69350 | 30003 ft | 372 kts | 225° |
| 2026-05-06 20:20 | 33.97805 | -95.73328 | 30003 ft | 372 kts | 224° |
| 2026-05-06 20:20 | 33.93800 | -95.77297 | 29999 ft | 372 kts | 224° |
| 2026-05-06 20:21 | 33.89796 | -95.81262 | 30004 ft | 372 kts | 224° |
| 2026-05-06 20:21 | 33.85795 | -95.85230 | 29998 ft | 372 kts | 224° |
| 2026-05-06 20:22 | 33.81823 | -95.89169 | 30001 ft | 372 kts | 224° |
| 2026-05-06 20:22 | 33.77795 | -95.93156 | 29970 ft | 374 kts | 224° |
| 2026-05-06 20:23 | 33.73790 | -95.97110 | 29972 ft | 375 kts | 224° |
| 2026-05-06 20:23 | 33.69756 | -96.01081 | 29763 ft | 368 kts | 224° |
| 2026-05-06 20:24 | 33.67792 | -96.03011 | 29493 ft | 362 kts | 225° |
| 2026-05-06 20:24 | 33.65845 | -96.04928 | 29222 ft | 360 kts | 225° |
| 2026-05-06 20:24 | 33.63917 | -96.06829 | 28941 ft | 358 kts | 225° |
| 2026-05-06 20:24 | 33.61995 | -96.08725 | 28688 ft | 357 kts | 225° |
| 2026-05-06 20:25 | 33.60079 | -96.10615 | 28446 ft | 355 kts | 225° |
| 2026-05-06 20:25 | 33.58170 | -96.12493 | 28192 ft | 354 kts | 225° |
| 2026-05-06 20:25 | 33.56269 | -96.14362 | 27906 ft | 352 kts | 225° |
| 2026-05-06 20:25 | 33.54387 | -96.16209 | 27357 ft | 348 kts | 225° |
| 2026-05-06 20:26 | 33.52521 | -96.18043 | 26733 ft | 345 kts | 225° |
| 2026-05-06 20:26 | 33.50667 | -96.19861 | 26135 ft | 344 kts | 225° |
| 2026-05-06 20:26 | 33.48830 | -96.21660 | 25555 ft | 342 kts | 225° |
| 2026-05-06 20:26 | 33.46985 | -96.23469 | 24994 ft | 340 kts | 225° |
| 2026-05-06 20:27 | 33.45161 | -96.25261 | 24454 ft | 338 kts | 226° |
| 2026-05-06 20:27 | 33.43559 | -96.27264 | 24075 ft | 327 kts | 233° |
| 2026-05-06 20:27 | 33.42101 | -96.29308 | 23646 ft | 320 kts | 233° |
| 2026-05-06 20:27 | 33.40648 | -96.31314 | 22975 ft | 316 kts | 233° |
| 2026-05-06 20:28 | 33.39208 | -96.33288 | 22285 ft | 313 kts | 232° |
| 2026-05-06 20:28 | 33.37801 | -96.35213 | 21625 ft | 309 kts | 232° |
| 2026-05-06 20:28 | 33.36374 | -96.37158 | 20916 ft | 303 kts | 232° |
| 2026-05-06 20:28 | 33.34993 | -96.39046 | 19841 ft | 300 kts | 232° |
| 2026-05-06 20:29 | 33.33647 | -96.40892 | 19275 ft | 296 kts | 232° |
| 2026-05-06 20:29 | 33.32286 | -96.42765 | 18892 ft | 298 kts | 232° |
| 2026-05-06 20:29 | 33.30932 | -96.44649 | 18378 ft | 298 kts | 232° |
| 2026-05-06 20:29 | 33.29586 | -96.46544 | 17810 ft | 297 kts | 232° |
| 2026-05-06 20:30 | 33.28255 | -96.48421 | 17297 ft | 296 kts | 232° |
| 2026-05-06 20:30 | 33.25572 | -96.52100 | 16567 ft | 293 kts | 230° |
| 2026-05-06 20:30 | 33.24198 | -96.53909 | 16277 ft | 295 kts | 230° |
| 2026-05-06 20:31 | 33.22815 | -96.55722 | 15995 ft | 295 kts | 230° |
| 2026-05-06 20:31 | 33.21432 | -96.57534 | 15738 ft | 294 kts | 230° |
| 2026-05-06 20:31 | 33.20074 | -96.59315 | 15443 ft | 287 kts | 230° |
| 2026-05-06 20:31 | 33.18739 | -96.61067 | 15160 ft | 283 kts | 230° |
| 2026-05-06 20:32 | 33.17417 | -96.62814 | 14861 ft | 284 kts | 230° |
| 2026-05-06 20:32 | 33.16114 | -96.64582 | 14494 ft | 283 kts | 231° |
| 2026-05-06 20:32 | 33.14822 | -96.66362 | 14139 ft | 283 kts | 231° |
| 2026-05-06 20:32 | 33.13532 | -96.68145 | 13771 ft | 284 kts | 230° |
| 2026-05-06 20:33 | 33.12240 | -96.69925 | 13389 ft | 283 kts | 230° |
| 2026-05-06 20:33 | 33.10976 | -96.71660 | 13232 ft | 271 kts | 230° |
| 2026-05-06 20:33 | 33.09762 | -96.73326 | 13100 ft | 260 kts | 230° |
| 2026-05-06 20:33 | 33.08592 | -96.74933 | 12875 ft | 254 kts | 231° |
| 2026-05-06 20:34 | 33.07442 | -96.76510 | 12622 ft | 250 kts | 230° |
| 2026-05-06 20:34 | 33.06295 | -96.78075 | 12372 ft | 250 kts | 230° |
| 2026-05-06 20:34 | 33.05143 | -96.79633 | 12122 ft | 251 kts | 230° |
| 2026-05-06 20:34 | 33.03988 | -96.81197 | 12036 ft | 251 kts | 230° |
| 2026-05-06 20:35 | 33.02843 | -96.82747 | 12038 ft | 253 kts | 230° |
| 2026-05-06 20:35 | 33.01667 | -96.84338 | 12032 ft | 253 kts | 230° |
| 2026-05-06 20:35 | 33.00520 | -96.85888 | 12031 ft | 247 kts | 230° |
| 2026-05-06 20:35 | 32.99414 | -96.87381 | 12039 ft | 233 kts | 230° |
| 2026-05-06 20:36 | 32.98358 | -96.88806 | 12040 ft | 228 kts | 229° |
| 2026-05-06 20:36 | 32.97113 | -96.89950 | 12049 ft | 226 kts | 210° |
| 2026-05-06 20:36 | 32.95597 | -96.90432 | 11761 ft | 230 kts | 191° |
| 2026-05-06 20:36 | 32.93991 | -96.90539 | 11412 ft | 231 kts | 189° |
| 2026-05-06 20:37 | 32.92380 | -96.90646 | 11122 ft | 232 kts | 189° |
| 2026-05-06 20:37 | 32.90768 | -96.90759 | 10841 ft | 232 kts | 189° |
| 2026-05-06 20:37 | 32.89161 | -96.90872 | 10629 ft | 231 kts | 189° |
| 2026-05-06 20:37 | 32.87553 | -96.90986 | 10356 ft | 232 kts | 189° |
| 2026-05-06 20:38 | 32.85942 | -96.91104 | 10068 ft | 232 kts | 188° |
| 2026-05-06 20:38 | 32.84328 | -96.91225 | 9702 ft | 231 kts | 188° |
| 2026-05-06 20:38 | 32.82721 | -96.91344 | 9291 ft | 231 kts | 188° |
| 2026-05-06 20:38 | 32.81119 | -96.91460 | 8903 ft | 230 kts | 188° |
| 2026-05-06 20:39 | 32.79523 | -96.91573 | 8512 ft | 229 kts | 187° |
| 2026-05-06 20:39 | 32.77928 | -96.91616 | 8128 ft | 229 kts | 185° |
| 2026-05-06 20:39 | 32.76334 | -96.91616 | 7747 ft | 228 kts | 185° |
| 2026-05-06 20:39 | 32.74748 | -96.91605 | 7380 ft | 228 kts | 185° |
| 2026-05-06 20:40 | 32.73169 | -96.91593 | 7041 ft | 226 kts | 185° |
| 2026-05-06 20:40 | 32.71615 | -96.91582 | 6693 ft | 226 kts | 185° |
| 2026-05-06 20:40 | 32.70026 | -96.91574 | 6337 ft | 225 kts | 185° |
| 2026-05-06 20:40 | 32.68468 | -96.91569 | 6024 ft | 222 kts | 185° |
| 2026-05-06 20:41 | 32.66917 | -96.91567 | 6009 ft | 225 kts | 185° |
| 2026-05-06 20:41 | 32.65366 | -96.91570 | 6009 ft | 225 kts | 185° |
| 2026-05-06 20:41 | 32.63775 | -96.91571 | 6008 ft | 226 kts | 185° |
| 2026-05-06 20:41 | 32.62230 | -96.91645 | 6002 ft | 222 kts | 197° |
| 2026-05-06 20:42 | 32.60925 | -96.92496 | 6004 ft | 214 kts | 230° |
| 2026-05-06 20:42 | 32.60293 | -96.94046 | 6001 ft | 211 kts | 262° |
| 2026-05-06 20:42 | 32.60341 | -96.95768 | 5638 ft | 212 kts | 284° |
| 2026-05-06 20:42 | 32.61038 | -96.97319 | 5244 ft | 217 kts | 304° |
| 2026-05-06 20:43 | 32.62055 | -96.98638 | 5033 ft | 217 kts | 312° |
| 2026-05-06 20:43 | 32.63159 | -96.99885 | 5031 ft | 220 kts | 312° |
| 2026-05-06 20:43 | 32.64269 | -97.01136 | 5028 ft | 220 kts | 313° |
| 2026-05-06 20:43 | 32.65462 | -97.02245 | 4854 ft | 219 kts | 329° |
| 2026-05-06 20:44 | 32.66902 | -97.02718 | 4722 ft | 213 kts | 352° |
| 2026-05-06 20:44 | 32.68350 | -97.02722 | 4498 ft | 204 kts | 356° |
| 2026-05-06 20:44 | 32.69306 | -97.02716 | 4265 ft | 203 kts | 356° |
| 2026-05-06 20:44 | 32.70708 | -97.02709 | 3982 ft | 199 kts | 357° |
| 2026-05-06 20:45 | 32.72065 | -97.02702 | 3720 ft | 191 kts | 359° |
| 2026-05-06 20:45 | 32.73376 | -97.02695 | 3476 ft | 187 kts | 360° |
| 2026-05-06 20:45 | 32.74661 | -97.02688 | 3235 ft | 182 kts | 1° |
| 2026-05-06 20:45 | 32.75918 | -97.02682 | 2990 ft | 179 kts | 2° |
| 2026-05-06 20:46 | 32.77155 | -97.02675 | 2750 ft | 177 kts | 1° |
| 2026-05-06 20:46 | 32.78375 | -97.02668 | 2516 ft | 174 kts | 2° |
| 2026-05-06 20:46 | 32.79574 | -97.02662 | 2277 ft | 172 kts | 1° |
| 2026-05-06 20:46 | 32.80729 | -97.02656 | 2041 ft | 158 kts | 0° |
| 2026-05-06 20:47 | 32.81778 | -97.02651 | 1841 ft | 144 kts | 360° |
| 2026-05-06 20:47 | 32.82760 | -97.02645 | 1646 ft | 137 kts | 0° |
| 2026-05-06 20:47 | 32.83714 | -97.02640 | 1446 ft | 136 kts | 0° |
| 2026-05-06 20:47 | 32.84665 | -97.02634 | 1252 ft | 136 kts | 0° |
| 2026-05-06 20:48 | 32.85612 | -97.02627 | 1083 ft | 136 kts | 1° |
| 2026-05-06 20:48 | 32.86556 | -97.02632 | 901 ft | 135 kts | 1° |
| 2026-05-06 20:48 | 32.87502 | -97.02618 | 694 ft | 135 kts | 2° |
| 2026-05-06 20:48 | 32.88426 | -97.02615 | 574 ft | 128 kts | 2° |
| 2026-05-06 20:49 | 32.89161 | -97.02611 | 575 ft | 81 kts | 0° |
| 2026-05-06 20:49 | 32.89586 | -97.02609 | 567 ft | 49 kts | 359° |
| 2026-05-06 20:49 | 32.89860 | -97.02634 | 572 ft | 32 kts | 339° |
| 2026-05-06 20:49 | 32.90034 | -97.02751 | 577 ft | 25 kts | 329° |
| 2026-05-06 20:50 | 32.90195 | -97.02799 | 573 ft | 24 kts | 0° |
| 2026-05-06 20:50 | 32.90357 | -97.02798 | 578 ft | 21 kts | 1° |
| 2026-05-06 20:50 | 32.90451 | -97.02808 | 579 ft | 10 kts | 327° |
| 2026-05-06 20:50 | 32.90467 | -97.02883 | 575 ft | 8 kts | 269° |
| 2026-05-06 20:51 | 32.90465 | -97.02967 | 574 ft | 12 kts | 269° |
| 2026-05-06 20:51 | 32.90465 | -97.03070 | 571 ft | 13 kts | 271° |
| 2026-05-06 20:51 | 32.90466 | -97.03177 | 575 ft | 12 kts | 271° |
| 2026-05-06 20:51 | 32.90467 | -97.03255 | 580 ft | 6 kts | 271° |
| 2026-05-06 20:52 | 32.90467 | -97.03278 | 582 ft | 0 kts | 271° |
| 2026-05-06 20:52 | 32.90467 | -97.03280 | 582 ft | 1 kts | 271° |
| 2026-05-06 20:52 | 32.90467 | -97.03297 | 584 ft | 3 kts | 270° |
| 2026-05-06 20:52 | 32.90477 | -97.03331 | 586 ft | 6 kts | 306° |
| 2026-05-06 20:53 | 32.90508 | -97.03366 | 586 ft | 7 kts | 319° |
| 2026-05-06 20:53 | 32.90525 | -97.03400 | 587 ft | 2 kts | 252° |
| 2026-05-06 20:53 | 32.90517 | -97.03407 | 587 ft | 0 kts | 220° |
| 2026-05-06 20:55 | 32.90507 | -97.03412 | 587 ft | 3 kts | 197° |
| 2026-05-06 20:55 | 32.90472 | -97.03420 | 587 ft | 6 kts | 194° |
| 2026-05-06 20:56 | 32.90455 | -97.03459 | 587 ft | 6 kts | 277° |
| 2026-05-06 20:56 | 32.90459 | -97.03492 | 587 ft | 3 kts | 275° |
| 2026-05-06 20:56 | 32.90459 | -97.03498 | 587 ft | 0 kts | 275° |